Time;durP1;ratioP1;P1;durP2;ratioP2;P2;SDS_P1;SDS_P2;PMS_P1;PMS_P2;Temp;Humidity;BMP_temperature;BMP_pressure;BME280_temperature;BME280_humidity;BME280_pressure;Samples;Min_cycle;Max_cycle;Signal;HPM_P1;HPM_P2
2022/06/17 00:02:00;;;;;;;;;;;;;;;;;;4949331;28;19949;-52
2022/06/17 00:04:25;;;;;;;;;;;;;;;;;;4953619;28;19934;-53
2022/06/17 00:06:51;;;;;;;;;;;;;;;;;;4960911;28;19966;-54
2022/06/17 00:09:18;;;;;;;;;;;;;;;;;;4958803;28;19941;-54
2022/06/17 00:11:44;;;;;;;;;;;;;;;;;;4953000;28;19926;-54
2022/06/17 00:14:11;;;;;;;;;;;;;;;;;;4957418;28;20052;-53
2022/06/17 00:16:37;;;;;;;;;;;;;;;;;;4960441;28;20007;-54
2022/06/17 00:19:02;;;;;;;;;;;;;;;;;;4959246;28;20463;-55
2022/06/17 00:21:28;;;;;;;;;;;;;;;;;;4959486;28;19918;-54
2022/06/17 00:23:53;;;;;;;;;;;;;;;;;;4957072;28;19925;-55
2022/06/17 00:26:20;;;;;;;;;;;;;;;;;;4959276;28;19922;-53
2022/06/17 00:28:48;;;;;;;;;;;;;;;;;;4952590;28;20301;-52
2022/06/17 00:31:13;;;;;;;;;;;;;;;;;;4958748;28;19918;-54
2022/06/17 00:33:41;;;;;;;;;;;;;;;;;;4955941;28;20009;-53
2022/06/17 00:36:09;;;;;;;;;;;;;;;;;;4934656;28;20064;-53
2022/06/17 00:38:37;;;;;;;;;;;;;;;;;;4956977;28;19972;-55
2022/06/17 00:41:05;;;;;;;;;;;;;;;;;;4956788;28;20000;-53
2022/06/17 00:43:30;;;;;;;;;;;;;;;;;;4951148;28;21590;-53
2022/06/17 00:45:59;;;;;;;;;;;;;;;;;;4958688;28;20051;-54
2022/06/17 00:48:29;;;;;;;;;;;;;;;;;;4955061;28;19933;-53
2022/06/17 00:50:54;;;;;;;;;;;;;;;;;;4937083;28;19930;-54
2022/06/17 00:53:19;;;;;;;;;;;;;;;;;;4953232;28;19922;-53
2022/06/17 00:55:45;;;;;;;;;;;;;;;;;;4956558;28;19932;-51
2022/06/17 00:58:13;;;;;;;;;;;;;;;;;;4957446;28;20346;-49
2022/06/17 01:00:38;;;;;;;;;;;;;;;;;;4958738;28;19929;-53
2022/06/17 01:03:06;;;;;;;;;;;;;;;;;;4956372;28;19930;-53
2022/06/17 01:05:34;;;;;;;;;;;;;;;;;;4934970;28;19950;-52
2022/06/17 01:07:59;;;;;;;;;;;;;;;;;;4954502;28;19953;-54
2022/06/17 01:10:26;;;;;;;;;;;;;;;;;;4959607;28;19928;-53
2022/06/17 01:12:54;;;;;;;;;;;;;;;;;;4954742;28;20281;-55
2022/06/17 01:15:22;;;;;;;;;;;;;;;;;;4963452;28;19948;-55
2022/06/17 01:17:48;;;;;;;;;;;;;;;;;;4961383;28;19917;-55
2022/06/17 01:20:13;;;;;;;;;;;;;;;;;;4959949;28;19964;-54
2022/06/17 01:22:39;;;;;;;;;;;;;;;;;;4962263;28;22128;-54
2022/06/17 01:25:04;;;;;;;;;;;;;;;;;;4958538;28;20529;-54
2022/06/17 01:27:34;;;;;;;;;;;;;;;;;;4960146;28;19922;-53
2022/06/17 01:30:02;;;;;;;;;;;;;;;;;;4958749;28;19929;-53
2022/06/17 01:32:28;;;;;;;;;;;;;;;;;;4962344;28;21741;-55
2022/06/17 01:34:56;;;;;;;;;;;;;;;;;;4952032;28;19922;-52
2022/06/17 01:37:21;;;;;;;;;;;;;;;;;;4959230;28;20914;-54
2022/06/17 01:39:46;;;;;;;;;;;;;;;;;;4959883;28;19922;-53
2022/06/17 01:42:14;;;;;;;;;;;;;;;;;;4959763;28;19945;-53
2022/06/17 01:44:39;;;;;;;;;;;;;;;;;;4942636;28;20907;-54
2022/06/17 01:47:04;;;;;;;;;;;;;;;;;;4933469;28;19930;-53
2022/06/17 01:49:30;;;;;;;;;;;;;;;;;;4955421;28;20326;-53
2022/06/17 01:51:58;;;;;;;;;;;;;;;;;;4960967;28;20068;-53
2022/06/17 01:54:28;;;;;;;;;;;;;;;;;;4959601;28;20535;-51
2022/06/17 01:56:53;;;;;;;;;;;;;;;;;;4955122;28;19926;-53
2022/06/17 01:59:23;;;;;;;;;;;;;;;;;;4956851;28;19922;-53
2022/06/17 02:01:49;;;;;;;;;;;;;;;;;;4960331;28;19917;-53
2022/06/17 02:04:14;;;;;;;;;;;;;;;;;;4960112;28;19941;-54
2022/06/17 02:06:39;;;;;;;;;;;;;;;;;;4948184;28;19917;-53
2022/06/17 02:09:05;;;;;;;;;;;;;;;;;;4954299;28;20616;-55
2022/06/17 02:11:30;;;;;;;;;;;;;;;;;;4935113;28;20265;-54
2022/06/17 02:13:55;;;;;;;;;;;;;;;;;;4957572;28;19964;-53
2022/06/17 02:16:20;;;;;;;;;;;;;;;;;;4958939;28;20663;-54
2022/06/17 02:18:48;;;;;;;;;;;;;;;;;;4960481;28;19925;-54
2022/06/17 02:21:16;;;;;;;;;;;;;;;;;;4958662;28;19972;-54
2022/06/17 02:23:43;;;;;;;;;;;;;;;;;;4960254;28;20056;-54
2022/06/17 02:26:09;;;;;;;;;;;;;;;;;;4961973;28;19922;-54
2022/06/17 02:28:35;;;;;;;;;;;;;;;;;;4956805;28;19929;-54
2022/06/17 02:31:03;;;;;;;;;;;;;;;;;;4959734;28;19972;-54
2022/06/17 02:33:31;;;;;;;;;;;;;;;;;;4943635;28;20060;-54
2022/06/17 02:35:56;;;;;;;;;;;;;;;;;;4955185;28;19928;-53
2022/06/17 02:38:21;;;;;;;;;;;;;;;;;;4950992;28;20297;-54
2022/06/17 02:40:49;;;;;;;;;;;;;;;;;;4953797;28;19922;-54
2022/06/17 02:43:15;;;;;;;;;;;;;;;;;;4934360;28;19921;-55
2022/06/17 02:45:41;;;;;;;;;;;;;;;;;;4956492;28;19922;-54
2022/06/17 02:48:09;;;;;;;;;;;;;;;;;;4959936;28;19917;-52
2022/06/17 02:50:36;;;;;;;;;;;;;;;;;;4958552;28;19934;-54
2022/06/17 02:53:02;;;;;;;;;;;;;;;;;;4935454;28;19922;-52
2022/06/17 02:55:27;;;;;;;;;;;;;;;;;;4960707;28;19928;-53
2022/06/17 02:57:53;;;;;;;;;;;;;;;;;;4958114;28;19918;-53
2022/06/17 03:00:20;;;;;;;;;;;;;;;;;;4943606;28;19965;-54
2022/06/17 03:02:47;;;;;;;;;;;;;;;;;;4959036;28;20370;-54
2022/06/17 03:05:12;;;;;;;;;;;;;;;;;;4957878;28;20008;-54
2022/06/17 03:07:38;;;;;;;;;;;;;;;;;;4957008;28;20008;-54
2022/06/17 03:10:03;;;;;;;;;;;;;;;;;;4941974;28;20533;-55
2022/06/17 03:12:34;;;;;;;;;;;;;;;;;;4937868;28;19921;-54
2022/06/17 03:15:06;;;;;;;;;;;;;;;;;;4958108;28;20822;-54
2022/06/17 03:17:34;;;;;;;;;;;;;;;;;;4959431;28;19922;-54
2022/06/17 03:19:59;;;;;;;;;;;;;;;;;;4937617;28;20000;-54
2022/06/17 03:22:25;;;;;;;;;;;;;;;;;;4957827;28;19922;-54
2022/06/17 03:24:50;;;;;;;;;;;;;;;;;;4942947;28;20460;-54
2022/06/17 03:27:18;;;;;;;;;;;;;;;;;;4940604;28;19929;-53
2022/06/17 03:29:45;;;;;;;;;;;;;;;;;;4959314;28;20090;-54
2022/06/17 03:32:10;;;;;;;;;;;;;;;;;;4958847;28;19925;-53
2022/06/17 03:34:38;;;;;;;;;;;;;;;;;;4935482;28;20571;-52
2022/06/17 03:37:08;;;;;;;;;;;;;;;;;;4944503;28;20045;-53
2022/06/17 03:39:34;;;;;;;;;;;;;;;;;;4961097;28;19925;-54
2022/06/17 03:42:01;;;;;;;;;;;;;;;;;;4955862;28;19918;-53
2022/06/17 03:44:27;;;;;;;;;;;;;;;;;;4958063;28;19930;-53
2022/06/17 03:46:52;;;;;;;;;;;;;;;;;;4956524;28;20020;-54
2022/06/17 03:49:17;;;;;;;;;;;;;;;;;;4940547;28;19933;-53
2022/06/17 03:51:48;;;;;;;;;;;;;;;;;;4962426;28;19976;-52
2022/06/17 03:54:17;;;;;;;;;;;;;;;;;;4958375;28;19917;-54
2022/06/17 03:56:45;;;;;;;;;;;;;;;;;;4956785;28;19929;-52
2022/06/17 03:59:10;;;;;;;;;;;;;;;;;;4958244;28;19928;-53
2022/06/17 04:01:35;;;;;;;;;;;;;;;;;;4959738;28;19917;-54
2022/06/17 04:04:01;;;;;;;;;;;;;;;;;;4956155;28;20496;-52
2022/06/17 04:06:28;;;;;;;;;;;;;;;;;;4956705;28;19929;-54
2022/06/17 04:08:59;;;;;;;;;;;;;;;;;;4943687;28;19918;-54
2022/06/17 04:11:26;;;;;;;;;;;;;;;;;;4958382;28;19928;-52
2022/06/17 04:13:51;;;;;;;;;;;;;;;;;;4951630;28;19922;-55
2022/06/17 04:16:17;;;;;;;;;;;;;;;;;;4955482;28;19969;-54
2022/06/17 04:18:43;;;;;;;;;;;;;;;;;;4956320;28;19989;-54
2022/06/17 04:21:11;;;;;;;;;;;;;;;;;;4955640;28;19957;-54
2022/06/17 04:23:37;;;;;;;;;;;;;;;;;;4957358;28;20036;-55
2022/06/17 04:26:02;;;;;;;;;;;;;;;;;;4933562;28;20470;-55
2022/06/17 04:28:27;;;;;;;;;;;;;;;;;;4943839;28;19922;-55
2022/06/17 04:30:52;;;;;;;;;;;;;;;;;;4959178;28;20000;-54
2022/06/17 04:33:18;;;;;;;;;;;;;;;;;;4942926;28;19929;-55
2022/06/17 04:35:43;;;;;;;;;;;;;;;;;;4956873;28;19922;-54
2022/06/17 04:38:08;;;;;;;;;;;;;;;;;;4955467;28;20721;-54
2022/06/17 04:40:34;;;;;;;;;;;;;;;;;;4956630;28;19928;-54
2022/06/17 04:43:00;;;;;;;;;;;;;;;;;;4957303;28;19929;-54
2022/06/17 04:45:25;;;;;;;;;;;;;;;;;;4961433;28;19980;-55
2022/06/17 04:47:51;;;;;;;;;;;;;;;;;;4962555;28;19922;-55
2022/06/17 04:50:18;;;;;;;;;;;;;;;;;;4963296;28;19929;-55
2022/06/17 04:52:43;;;;;;;;;;;;;;;;;;4944067;28;19933;-55
2022/06/17 04:55:09;;;;;;;;;;;;;;;;;;4958787;28;19921;-54
2022/06/17 04:57:35;;;;;;;;;;;;;;;;;;4959954;28;19949;-54
2022/06/17 05:00:00;;;;;;;;;;;;;;;;;;4963127;28;19966;-55
2022/06/17 05:02:30;;;;;;;;;;;;;;;;;;4961166;28;19922;-56
2022/06/17 05:04:58;;;;;;;;;;;;;;;;;;4924740;28;19930;-55
2022/06/17 05:07:26;;;;;;;;;;;;;;;;;;4943375;28;20974;-56
2022/06/17 05:09:51;;;;;;;;;;;;;;;;;;4943062;28;19922;-54
2022/06/17 05:12:18;;;;;;;;;;;;;;;;;;4965478;28;20584;-55
2022/06/17 05:14:44;;;;;;;;;;;;;;;;;;4944762;28;19932;-55
2022/06/17 05:17:12;;;;;;;;;;;;;;;;;;4957790;28;19922;-55
2022/06/17 05:19:37;;;;;;;;;;;;;;;;;;4942922;28;19929;-56
2022/06/17 05:22:05;;;;;;;;;;;;;;;;;;4943001;28;21919;-55
2022/06/17 05:24:30;;;;;;;;;;;;;;;;;;4945987;28;19926;-55
2022/06/17 05:26:58;;;;;;;;;;;;;;;;;;4960405;28;19922;-56
2022/06/17 05:29:23;;;;;;;;;;;;;;;;;;4962847;28;19972;-56
2022/06/17 05:31:49;;;;;;;;;;;;;;;;;;4961525;28;19929;-55
2022/06/17 05:34:19;;;;;;;;;;;;;;;;;;4967589;28;19917;-56
2022/06/17 05:36:45;;;;;;;;;;;;;;;;;;4961046;28;20704;-56
2022/06/17 05:39:15;;;;;;;;;;;;;;;;;;4965948;28;19922;-55
2022/06/17 05:41:42;;;;;;;;;;;;;;;;;;4934066;28;19926;-53
2022/06/17 05:44:08;;;;;;;;;;;;;;;;;;4964438;28;19936;-55
2022/06/17 05:46:33;;;;;;;;;;;;;;;;;;4965791;28;19949;-55
2022/06/17 05:49:01;;;;;;;;;;;;;;;;;;4964446;28;19933;-55
2022/06/17 05:51:30;;;;;;;;;;;;;;;;;;4943216;28;19969;-55
2022/06/17 05:54:01;;;;;;;;;;;;;;;;;;4949830;28;19934;-57
2022/06/17 05:56:29;;;;;;;;;;;;;;;;;;4964668;28;19953;-55
2022/06/17 05:58:54;;;;;;;;;;;;;;;;;;4949007;28;20007;-54
2022/06/17 06:01:22;;;;;;;;;;;;;;;;;;4943380;28;22054;-55
2022/06/17 06:03:50;;;;;;;;;;;;;;;;;;4965517;28;20071;-55
2022/06/17 06:06:16;;;;;;;;;;;;;;;;;;4944212;28;19918;-55
2022/06/17 06:08:44;;;;;;;;;;;;;;;;;;4950303;28;19929;-55
2022/06/17 06:11:11;;;;;;;;;;;;;;;;;;4947727;28;19941;-55
2022/06/17 06:13:37;;;;;;;;;;;;;;;;;;4966072;28;21775;-55
2022/06/17 06:16:05;;;;;;;;;;;;;;;;;;4950283;28;19921;-55
2022/06/17 06:18:30;;;;;;;;;;;;;;;;;;4944497;28;19932;-55
2022/06/17 06:21:00;;;;;;;;;;;;;;;;;;4926643;28;20012;-55
2022/06/17 06:23:25;;;;;;;;;;;;;;;;;;4946732;28;19941;-56
2022/06/17 06:25:52;;;;;;;;;;;;;;;;;;4946808;28;20341;-55
2022/06/17 06:28:21;;;;;;;;;;;;;;;;;;4966759;28;20338;-57
2022/06/17 06:30:47;;;;;;;;;;;;;;;;;;4967978;28;19922;-56
2022/06/17 06:33:14;;;;;;;;;;;;;;;;;;4967456;28;19968;-54
2022/06/17 06:35:42;;;;;;;;;;;;;;;;;;4965342;28;20457;-55
2022/06/17 06:38:07;;;;;;;;;;;;;;;;;;4965814;28;19922;-56
2022/06/17 06:40:33;;;;;;;;;;;;;;;;;;4950888;28;19961;-56
2022/06/17 06:43:01;;;;;;;;;;;;;;;;;;4951359;28;19924;-56
2022/06/17 06:45:26;;;;;;;;;;;;;;;;;;4966785;28;19972;-56
2022/06/17 06:47:51;;;;;;;;;;;;;;;;;;4965797;28;20714;-56
2022/06/17 06:50:19;;;;;;;;;;;;;;;;;;4965840;28;19934;-56
2022/06/17 06:52:46;;;;;;;;;;;;;;;;;;4947863;28;21058;-57
2022/06/17 06:55:11;;;;;;;;;;;;;;;;;;4966779;28;19932;-56
2022/06/17 06:57:39;;;;;;;;;;;;;;;;;;4964295;28;19921;-57
2022/06/17 07:00:07;;;;;;;;;;;;;;;;;;4947416;28;19921;-56
2022/06/17 07:02:33;;;;;;;;;;;;;;;;;;4967182;28;19926;-57
2022/06/17 07:04:58;;;;;;;;;;;;;;;;;;4945750;28;20396;-58
2022/06/17 07:07:26;;;;;;;;;;;;;;;;;;4949574;28;20108;-57
2022/06/17 07:09:54;;;;;;;;;;;;;;;;;;4959692;28;19928;-57
2022/06/17 07:12:19;;;;;;;;;;;;;;;;;;4964857;28;20855;-57
2022/06/17 07:14:44;;;;;;;;;;;;;;;;;;4934107;28;19924;-57
2022/06/17 07:17:12;;;;;;;;;;;;;;;;;;4965561;28;20013;-57
2022/06/17 07:19:41;;;;;;;;;;;;;;;;;;4963112;28;19917;-57
2022/06/17 07:22:07;;;;;;;;;;;;;;;;;;4962078;28;21279;-57
2022/06/17 07:24:32;;;;;;;;;;;;;;;;;;4964159;28;19929;-57
2022/06/17 07:26:58;;;;;;;;;;;;;;;;;;4964818;28;19973;-58
2022/06/17 07:29:26;;;;;;;;;;;;;;;;;;4959066;28;20021;-57
2022/06/17 07:31:53;;;;;;;;;;;;;;;;;;4944481;28;19926;-55
2022/06/17 07:34:21;;;;;;;;;;;;;;;;;;4944166;28;19944;-58
2022/06/17 07:39:57;;;;;;;;;;;;;;;;;;4961743;28;19921;-57
2022/06/17 07:42:37;;;;;;;;;;;;;;;;;;4960739;28;19945;-56
2022/06/17 07:45:02;;;;;;;;;;;;;;;;;;4964004;28;20903;-56
2022/06/17 07:47:28;;;;;;;;;;;;;;;;;;4963185;28;19917;-56
2022/06/17 07:49:53;;;;;;;;;;;;;;;;;;4947804;28;19934;-55
2022/06/17 07:52:20;;;;;;;;;;;;;;;;;;4965367;28;19917;-55
2022/06/17 07:54:49;;;;;;;;;;;;;;;;;;4959197;28;19921;-55
2022/06/17 07:57:16;;;;;;;;;;;;;;;;;;4963796;28;19922;-56
2022/06/17 07:59:41;;;;;;;;;;;;;;;;;;4964225;28;20104;-56
2022/06/17 08:02:09;;;;;;;;;;;;;;;;;;4961996;28;19922;-57
2022/06/17 08:04:35;;;;;;;;;;;;;;;;;;4963615;28;19926;-56
2022/06/17 08:07:01;;;;;;;;;;;;;;;;;;4942574;28;19922;-56
2022/06/17 08:09:26;;;;;;;;;;;;;;;;;;4963895;28;21779;-56
2022/06/17 08:11:55;;;;;;;;;;;;;;;;;;4961833;28;20382;-56
2022/06/17 08:14:22;;;;;;;;;;;;;;;;;;4962704;28;19918;-56
2022/06/17 08:16:51;;;;;;;;;;;;;;;;;;4961654;28;19972;-57
2022/06/17 08:19:16;;;;;;;;;;;;;;;;;;4965081;28;19929;-56
2022/06/17 08:21:46;;;;;;;;;;;;;;;;;;4959840;28;19979;-57
2022/06/17 08:24:17;;;;;;;;;;;;;;;;;;4965163;28;20016;-57
2022/06/17 08:26:42;;;;;;;;;;;;;;;;;;4964932;28;19926;-57
2022/06/17 08:29:07;;;;;;;;;;;;;;;;;;4941224;28;19972;-57
2022/06/17 08:31:35;;;;;;;;;;;;;;;;;;4959451;28;19928;-57
2022/06/17 08:34:03;;;;;;;;;;;;;;;;;;4962415;28;19922;-57
2022/06/17 08:36:28;;;;;;;;;;;;;;;;;;4940484;28;19923;-57
2022/06/17 08:38:59;;;;;;;;;;;;;;;;;;4962072;28;20397;-57
2022/06/17 08:41:24;;;;;;;;;;;;;;;;;;4964096;28;19992;-57
2022/06/17 08:43:52;;;;;;;;;;;;;;;;;;4963208;28;19926;-57
2022/06/17 08:46:18;;;;;;;;;;;;;;;;;;4966084;28;19924;-57
2022/06/17 08:48:43;;;;;;;;;;;;;;;;;;4963993;28;20052;-57
2022/06/17 08:51:12;;;;;;;;;;;;;;;;;;4928649;28;19921;-57
2022/06/17 08:53:37;;;;;;;;;;;;;;;;;;4963087;28;19921;-57
2022/06/17 08:56:05;;;;;;;;;;;;;;;;;;4939872;28;20692;-57
2022/06/17 08:58:36;;;;;;;;;;;;;;;;;;4940299;28;19928;-57
2022/06/17 09:01:03;;;;;;;;;;;;;;;;;;4963776;28;19942;-57
2022/06/17 09:03:29;;;;;;;;;;;;;;;;;;4945927;28;19953;-57
2022/06/17 09:05:54;;;;;;;;;;;;;;;;;;4962296;28;20338;-57
2022/06/17 09:08:19;;;;;;;;;;;;;;;;;;4962787;28;19926;-57
2022/06/17 09:10:45;;;;;;;;;;;;;;;;;;4961800;28;20361;-57
2022/06/17 09:13:11;;;;;;;;;;;;;;;;;;4964503;28;19921;-57
2022/06/17 09:15:39;;;;;;;;;;;;;;;;;;4963990;28;19922;-57
2022/06/17 09:18:04;;;;;;;;;;;;;;;;;;4963686;28;21957;-58
2022/06/17 09:20:30;;;;;;;;;;;;;;;;;;4960991;28;19922;-57
2022/06/17 09:22:57;;;;;;;;;;;;;;;;;;4940659;28;19931;-57
2022/06/17 09:25:23;;;;;;;;;;;;;;;;;;4946262;28;19923;-58
2022/06/17 09:27:48;;;;;;;;;;;;;;;;;;4941891;28;19946;-56
2022/06/17 09:30:16;;;;;;;;;;;;;;;;;;4966919;28;21092;-57
2022/06/17 09:32:41;;;;;;;;;;;;;;;;;;4944514;28;19926;-58
2022/06/17 09:35:06;;;;;;;;;;;;;;;;;;4961459;28;19932;-58
2022/06/17 09:37:34;;;;;;;;;;;;;;;;;;4963922;28;19960;-56
2022/06/17 09:40:02;;;;;;;;;;;;;;;;;;4946528;28;20668;-56
2022/06/17 09:42:28;;;;;;;;;;;;;;;;;;4948611;28;19936;-57
2022/06/17 09:44:53;;;;;;;;;;;;;;;;;;4965381;28;20531;-57
2022/06/17 09:47:21;;;;;;;;;;;;;;;;;;4967053;28;19921;-57
2022/06/17 09:49:47;;;;;;;;;;;;;;;;;;4966414;28;19976;-55
2022/06/17 09:52:12;;;;;;;;;;;;;;;;;;4965831;28;20313;-56
2022/06/17 09:54:39;;;;;;;;;;;;;;;;;;4943050;28;19922;-56
2022/06/17 09:57:04;;;;;;;;;;;;;;;;;;4965975;28;19917;-56
2022/06/17 09:59:37;;;;;;;;;;;;;;;;;;4965187;28;19922;-57
2022/06/17 10:02:03;;;;;;;;;;;;;;;;;;4964423;28;19922;-56
2022/06/17 10:04:28;;;;;;;;;;;;;;;;;;4945422;28;20282;-56
2022/06/17 10:06:54;;;;;;;;;;;;;;;;;;4964457;28;19941;-57
2022/06/17 10:09:21;;;;;;;;;;;;;;;;;;4947625;28;20306;-58
2022/06/17 10:11:49;;;;;;;;;;;;;;;;;;4944286;28;19917;-58
2022/06/17 10:14:17;;;;;;;;;;;;;;;;;;4967402;28;20020;-57
2022/06/17 10:19:29;;;;;;;;;;;;;;;;;;4964995;28;19929;-57
2022/06/17 10:21:59;;;;;;;;;;;;;;;;;;4964721;28;19941;-57
2022/06/17 10:24:27;;;;;;;;;;;;;;;;;;4965731;28;19922;-58
2022/06/17 10:26:55;;;;;;;;;;;;;;;;;;4945310;28;19918;-57
2022/06/17 10:29:25;;;;;;;;;;;;;;;;;;4966152;28;19929;-57
2022/06/17 10:31:52;;;;;;;;;;;;;;;;;;4965690;28;23484;-57
2022/06/17 10:34:18;;;;;;;;;;;;;;;;;;4933394;28;19975;-57
2022/06/17 10:36:43;;;;;;;;;;;;;;;;;;4964224;28;19918;-57
2022/06/17 10:39:10;;;;;;;;;;;;;;;;;;4966290;28;19922;-58
2022/06/17 10:41:37;;;;;;;;;;;;;;;;;;4961327;28;19960;-57
2022/06/17 10:44:06;;;;;;;;;;;;;;;;;;4951037;28;19922;-57
2022/06/17 10:46:36;;;;;;;;;;;;;;;;;;4948464;28;19918;-58
2022/06/17 10:49:06;;;;;;;;;;;;;;;;;;4946232;28;19936;-58
2022/06/17 10:51:32;;;;;;;;;;;;;;;;;;4963144;28;19918;-56
2022/06/17 10:53:57;;;;;;;;;;;;;;;;;;4960147;28;19926;-55
2022/06/17 10:56:24;;;;;;;;;;;;;;;;;;4966043;28;19980;-56
2022/06/17 10:58:50;;;;;;;;;;;;;;;;;;4964322;28;19968;-56
2022/06/17 11:01:17;;;;;;;;;;;;;;;;;;4963616;28;19924;-56
2022/06/17 11:03:45;;;;;;;;;;;;;;;;;;4965710;28;19921;-56
2022/06/17 11:06:14;;;;;;;;;;;;;;;;;;4965110;28;19956;-56
2022/06/17 11:08:40;;;;;;;;;;;;;;;;;;4965831;28;19996;-55
2022/06/17 11:13:49;;;;;;;;;;;;;;;;;;4966280;28;19941;-56
2022/06/17 11:16:15;;;;;;;;;;;;;;;;;;4965327;28;19918;-56
2022/06/17 11:18:43;;;;;;;;;;;;;;;;;;4964333;28;19922;-56
2022/06/17 11:21:08;;;;;;;;;;;;;;;;;;4942834;28;19988;-56
2022/06/17 11:23:33;;;;;;;;;;;;;;;;;;4962668;28;20645;-56
2022/06/17 11:26:01;;;;;;;;;;;;;;;;;;4963686;28;19921;-56
2022/06/17 11:28:27;;;;;;;;;;;;;;;;;;4964219;28;20872;-57
2022/06/17 11:30:52;;;;;;;;;;;;;;;;;;4963222;28;19922;-56
2022/06/17 11:33:20;;;;;;;;;;;;;;;;;;4962608;28;19922;-56
2022/06/17 11:35:47;;;;;;;;;;;;;;;;;;4961815;28;19921;-56
2022/06/17 11:38:15;;;;;;;;;;;;;;;;;;4960239;28;19922;-57
2022/06/17 11:40:41;;;;;;;;;;;;;;;;;;4964524;28;19968;-57
2022/06/17 11:43:09;;;;;;;;;;;;;;;;;;4958082;28;19918;-57
2022/06/17 11:45:34;;;;;;;;;;;;;;;;;;4964175;28;20450;-57
2022/06/17 11:48:01;;;;;;;;;;;;;;;;;;4954048;28;19929;-56
2022/06/17 11:50:27;;;;;;;;;;;;;;;;;;4943326;28;20714;-56
2022/06/17 11:52:57;;;;;;;;;;;;;;;;;;4925250;28;19930;-57
2022/06/17 11:55:23;;;;;;;;;;;;;;;;;;4942526;28;19942;-57
2022/06/17 11:57:48;;;;;;;;;;;;;;;;;;4926274;28;19922;-56
2022/06/17 12:00:13;;;;;;;;;;;;;;;;;;4946129;28;20003;-58
2022/06/17 12:02:41;;;;;;;;;;;;;;;;;;4919590;28;19958;-58
2022/06/17 12:05:06;;;;;;;;;;;;;;;;;;4925700;28;19919;-57
2022/06/17 12:07:34;;;;;;;;;;;;;;;;;;4924818;28;19921;-58
2022/06/17 12:09:59;;;;;;;;;;;;;;;;;;4930215;28;20401;-58
2022/06/17 12:12:25;;;;;;;;;;;;;;;;;;4939859;28;19924;-58
2022/06/17 12:14:50;;;;;;;;;;;;;;;;;;4945784;28;19933;-58
2022/06/17 12:17:18;;;;;;;;;;;;;;;;;;4922528;28;19922;-58
2022/06/17 12:19:43;;;;;;;;;;;;;;;;;;4924379;28;20481;-58
2022/06/17 12:22:09;;;;;;;;;;;;;;;;;;4920538;28;19922;-58
2022/06/17 12:24:37;;;;;;;;;;;;;;;;;;4942199;28;19922;-59
2022/06/17 12:27:05;;;;;;;;;;;;;;;;;;4926625;28;20969;-58
2022/06/17 12:29:30;;;;;;;;;;;;;;;;;;4943190;28;19926;-59
2022/06/17 12:31:55;;;;;;;;;;;;;;;;;;4922739;28;19922;-58
2022/06/17 12:34:23;;;;;;;;;;;;;;;;;;4945365;28;21960;-58
2022/06/17 12:36:48;;;;;;;;;;;;;;;;;;4907248;28;19933;-58
2022/06/17 12:39:14;;;;;;;;;;;;;;;;;;4942804;28;19922;-58
2022/06/17 12:41:39;;;;;;;;;;;;;;;;;;4939739;28;19929;-59
2022/06/17 12:44:07;;;;;;;;;;;;;;;;;;4922805;28;19930;-58
2022/06/17 12:46:32;;;;;;;;;;;;;;;;;;4946943;28;19934;-58
2022/06/17 12:48:58;;;;;;;;;;;;;;;;;;4943495;28;19973;-58
2022/06/17 12:54:07;;;;;;;;;;;;;;;;;;4957770;28;21449;-58
2022/06/17 12:56:39;;;;;;;;;;;;;;;;;;4958524;28;19956;-57
2022/06/17 12:59:07;;;;;;;;;;;;;;;;;;4960887;28;20616;-57
2022/06/17 13:01:35;;;;;;;;;;;;;;;;;;4940037;28;19922;-58
2022/06/17 13:04:03;;;;;;;;;;;;;;;;;;4939237;28;19925;-57
2022/06/17 13:06:31;;;;;;;;;;;;;;;;;;4961969;28;20682;-57
2022/06/17 13:09:02;;;;;;;;;;;;;;;;;;4940658;28;19921;-57
2022/06/17 13:11:30;;;;;;;;;;;;;;;;;;4944782;28;20782;-57
2022/06/17 13:13:58;;;;;;;;;;;;;;;;;;4932246;28;19930;-57
2022/06/17 13:16:26;;;;;;;;;;;;;;;;;;4948495;28;20357;-58
2022/06/17 13:18:51;;;;;;;;;;;;;;;;;;4933142;28;19973;-57
2022/06/17 13:21:19;;;;;;;;;;;;;;;;;;4962386;28;20446;-58
2022/06/17 13:23:47;;;;;;;;;;;;;;;;;;4943018;28;19928;-58
2022/06/17 13:26:18;;;;;;;;;;;;;;;;;;4961408;28;19918;-58
2022/06/17 13:28:43;;;;;;;;;;;;;;;;;;4963081;28;19988;-58
2022/06/17 13:31:08;;;;;;;;;;;;;;;;;;4959245;28;20491;-58
2022/06/17 13:33:38;;;;;;;;;;;;;;;;;;4923181;28;19949;-58
2022/06/17 13:36:06;;;;;;;;;;;;;;;;;;4955085;28;19921;-58
2022/06/17 13:38:31;;;;;;;;;;;;;;;;;;4961591;28;19922;-58
2022/06/17 13:40:58;;;;;;;;;;;;;;;;;;4930655;28;19958;-58
2022/06/17 13:43:27;;;;;;;;;;;;;;;;;;4961375;28;19918;-58
2022/06/17 13:45:55;;;;;;;;;;;;;;;;;;4948418;28;20392;-58
2022/06/17 13:48:20;;;;;;;;;;;;;;;;;;4963489;28;19918;-58
2022/06/17 13:50:45;;;;;;;;;;;;;;;;;;4949296;28;19937;-58
2022/06/17 13:53:10;;;;;;;;;;;;;;;;;;4962169;28;20105;-58
2022/06/17 13:55:38;;;;;;;;;;;;;;;;;;4961697;28;19918;-58
2022/06/17 13:58:06;;;;;;;;;;;;;;;;;;4963032;28;19918;-58
2022/06/17 14:00:31;;;;;;;;;;;;;;;;;;4962330;28;20894;-60
2022/06/17 14:02:56;;;;;;;;;;;;;;;;;;4959442;28;19922;-59
2022/06/17 14:05:23;;;;;;;;;;;;;;;;;;4961186;28;20018;-59
2022/06/17 14:07:50;;;;;;;;;;;;;;;;;;4960038;28;19922;-58
2022/06/17 14:10:15;;;;;;;;;;;;;;;;;;4943698;28;19933;-57
2022/06/17 14:12:42;;;;;;;;;;;;;;;;;;4954355;28;19918;-57
2022/06/17 14:15:07;;;;;;;;;;;;;;;;;;4964354;28;20028;-57
2022/06/17 14:17:32;;;;;;;;;;;;;;;;;;4963776;28;21191;-58
2022/06/17 14:20:00;;;;;;;;;;;;;;;;;;4962814;28;21833;-58
2022/06/17 14:22:31;;;;;;;;;;;;;;;;;;4958217;28;19954;-59
2022/06/17 14:24:58;;;;;;;;;;;;;;;;;;4956242;28;19922;-59
2022/06/17 14:27:24;;;;;;;;;;;;;;;;;;4961341;28;19925;-58
2022/06/17 14:29:55;;;;;;;;;;;;;;;;;;4960536;28;20037;-58
2022/06/17 14:32:22;;;;;;;;;;;;;;;;;;4960785;28;19928;-59
2022/06/17 14:34:50;;;;;;;;;;;;;;;;;;4960433;28;19926;-58
2022/06/17 14:37:17;;;;;;;;;;;;;;;;;;4963789;28;19986;-58
2022/06/17 14:39:46;;;;;;;;;;;;;;;;;;4946823;28;19922;-58
2022/06/17 14:42:14;;;;;;;;;;;;;;;;;;4955963;28;20586;-58
2022/06/17 14:44:40;;;;;;;;;;;;;;;;;;4962370;28;19971;-57
2022/06/17 14:47:10;;;;;;;;;;;;;;;;;;4959498;28;19922;-58
2022/06/17 14:49:36;;;;;;;;;;;;;;;;;;4964566;28;20368;-57
2022/06/17 14:52:01;;;;;;;;;;;;;;;;;;4944485;28;19980;-57
2022/06/17 14:54:27;;;;;;;;;;;;;;;;;;4957185;28;20012;-57
2022/06/17 14:56:52;;;;;;;;;;;;;;;;;;4939880;28;20464;-58
2022/06/17 14:59:20;;;;;;;;;;;;;;;;;;4936846;28;19922;-58
2022/06/17 15:01:48;;;;;;;;;;;;;;;;;;4931240;28;19934;-58
2022/06/17 15:04:15;;;;;;;;;;;;;;;;;;4959691;28;20374;-57
2022/06/17 15:06:43;;;;;;;;;;;;;;;;;;4958142;28;19976;-57
2022/06/17 15:09:08;;;;;;;;;;;;;;;;;;4964006;28;20039;-57
2022/06/17 15:11:39;;;;;;;;;;;;;;;;;;4966142;28;20016;-58
2022/06/17 15:14:07;;;;;;;;;;;;;;;;;;4959695;28;20397;-57
2022/06/17 15:16:32;;;;;;;;;;;;;;;;;;4955524;28;20247;-58
2022/06/17 15:18:58;;;;;;;;;;;;;;;;;;4964932;28;20542;-57
2022/06/17 15:21:23;;;;;;;;;;;;;;;;;;4959056;28;20584;-58
2022/06/17 15:23:51;;;;;;;;;;;;;;;;;;4939649;28;19922;-58
2022/06/17 15:26:19;;;;;;;;;;;;;;;;;;4941820;28;19929;-58
2022/06/17 15:28:47;;;;;;;;;;;;;;;;;;4962159;28;19941;-58
2022/06/17 15:31:15;;;;;;;;;;;;;;;;;;4958540;28;20085;-58
2022/06/17 15:33:42;;;;;;;;;;;;;;;;;;4960216;28;21340;-57
2022/06/17 15:36:08;;;;;;;;;;;;;;;;;;4958642;28;19928;-60
2022/06/17 15:38:35;;;;;;;;;;;;;;;;;;4955840;28;19926;-58
2022/06/17 15:41:00;;;;;;;;;;;;;;;;;;4960962;28;21041;-59
2022/06/17 15:43:26;;;;;;;;;;;;;;;;;;4922379;28;19922;-58
2022/06/17 15:45:56;;;;;;;;;;;;;;;;;;4942342;28;19961;-58
2022/06/17 15:48:24;;;;;;;;;;;;;;;;;;4944414;28;19971;-58
2022/06/17 15:50:56;;;;;;;;;;;;;;;;;;4961812;28;19936;-57
2022/06/17 15:53:24;;;;;;;;;;;;;;;;;;4938989;28;19917;-58
2022/06/17 15:55:50;;;;;;;;;;;;;;;;;;4945152;28;20271;-57
2022/06/17 15:58:15;;;;;;;;;;;;;;;;;;4964153;28;20274;-58
2022/06/17 16:00:42;;;;;;;;;;;;;;;;;;4965456;28;19922;-58
2022/06/17 16:03:08;;;;;;;;;;;;;;;;;;4963795;28;19926;-58
2022/06/17 16:05:33;;;;;;;;;;;;;;;;;;4961100;28;19929;-58
2022/06/17 16:07:59;;;;;;;;;;;;;;;;;;4958365;28;19934;-58
2022/06/17 16:10:26;;;;;;;;;;;;;;;;;;4962852;28;20013;-57
2022/06/17 16:12:52;;;;;;;;;;;;;;;;;;4943488;28;19921;-57
2022/06/17 16:15:18;;;;;;;;;;;;;;;;;;4960424;28;20024;-58
2022/06/17 16:17:45;;;;;;;;;;;;;;;;;;4960483;28;19918;-58
2022/06/17 16:20:11;;;;;;;;;;;;;;;;;;4962826;28;19929;-58
2022/06/17 16:22:39;;;;;;;;;;;;;;;;;;4937854;28;19922;-58
2022/06/17 16:25:07;;;;;;;;;;;;;;;;;;4952509;28;19937;-58
2022/06/17 16:27:33;;;;;;;;;;;;;;;;;;4960510;28;19921;-58
2022/06/17 16:29:59;;;;;;;;;;;;;;;;;;4944601;28;19924;-57
2022/06/17 16:32:24;;;;;;;;;;;;;;;;;;4957405;28;19932;-57
2022/06/17 16:34:49;;;;;;;;;;;;;;;;;;4959955;28;19937;-57
2022/06/17 16:37:15;;;;;;;;;;;;;;;;;;4958971;28;19969;-58
2022/06/17 16:39:41;;;;;;;;;;;;;;;;;;4958344;28;22102;-59
2022/06/17 16:44:52;;;;;;;;;;;;;;;;;;4962347;28;20051;-56
2022/06/17 16:47:21;;;;;;;;;;;;;;;;;;4943203;28;19926;-59
2022/06/17 16:49:49;;;;;;;;;;;;;;;;;;4961823;28;19929;-57
2022/06/17 16:52:14;;;;;;;;;;;;;;;;;;4943337;28;20297;-57
2022/06/17 16:54:39;;;;;;;;;;;;;;;;;;4945675;28;19972;-58
2022/06/17 16:57:05;;;;;;;;;;;;;;;;;;4940956;28;20429;-58